createdAt,value
2019-05-06T00:01:38.000Z,0
2019-05-06T00:02:50.000Z,0
2019-05-06T00:04:03.000Z,0
2019-05-06T00:05:15.000Z,0
2019-05-06T00:06:27.000Z,0
2019-05-06T00:07:39.000Z,0
2019-05-06T00:08:51.000Z,0
2019-05-06T00:10:04.081Z,0
2019-05-06T00:11:16.272Z,0
2019-05-06T00:13:40.063Z,0
2019-05-06T00:14:52.000Z,0
2019-05-06T00:17:17.000Z,0
2019-05-06T00:18:29.041Z,0
2019-05-06T00:19:41.608Z,0
2019-05-06T00:20:53.000Z,0
2019-05-06T00:22:05.989Z,0
2019-05-06T00:23:18.307Z,0
2019-05-06T00:25:42.000Z,0
2019-05-06T00:26:54.000Z,0
2019-05-06T00:28:06.974Z,0
2019-05-06T00:29:19.000Z,0
2019-05-06T00:30:31.000Z,0
2019-05-06T00:31:43.000Z,0
2019-05-06T00:32:55.000Z,0
2019-05-06T00:34:07.911Z,0
2019-05-06T00:35:20.095Z,0
2019-05-06T00:37:44.000Z,0
2019-05-06T00:38:56.000Z,0
2019-05-06T00:40:08.873Z,0
2019-05-06T00:41:21.000Z,0
2019-05-06T00:42:33.000Z,0
2019-05-06T00:43:45.434Z,0
2019-05-06T00:44:57.000Z,0
2019-05-06T00:46:09.827Z,0
2019-05-06T00:47:21.000Z,0
2019-05-06T00:49:46.393Z,0
2019-05-06T00:50:58.000Z,0
2019-05-06T00:52:10.000Z,0
2019-05-06T00:53:22.000Z,0
2019-05-06T00:54:35.174Z,0
2019-05-06T00:55:47.000Z,0
2019-05-06T00:56:59.533Z,0
2019-05-06T00:58:11.747Z,0
2019-05-06T01:00:36.000Z,0
2019-05-06T01:01:48.004Z,0
2019-05-06T01:03:00.000Z,0
2019-05-06T01:04:12.703Z,0
2019-05-06T01:05:24.000Z,0
2019-05-06T01:06:37.197Z,0
2019-05-06T01:07:49.000Z,0
2019-05-06T01:09:01.583Z,0
2019-05-06T01:10:13.662Z,0
2019-05-06T01:11:25.840Z,0
2019-05-06T01:13:50.000Z,0
2019-05-06T01:15:02.000Z,0
2019-05-06T01:16:14.624Z,0
2019-05-06T01:17:26.000Z,0
2019-05-06T01:18:38.098Z,0
2019-05-06T01:19:51.018Z,0
2019-05-06T01:21:03.388Z,0
2019-05-06T01:22:15.584Z,0
2019-05-06T01:23:27.078Z,0
2019-05-06T01:25:52.150Z,0
2019-05-06T01:27:04.000Z,0
2019-05-06T01:28:16.554Z,0
2019-05-06T01:29:28.000Z,0
2019-05-06T01:30:40.946Z,0
2019-05-06T01:31:53.000Z,0
2019-05-06T01:33:05.315Z,0
2019-05-06T01:34:17.524Z,0
2019-05-06T01:35:29.000Z,0
2019-05-06T01:37:54.000Z,0
2019-05-06T01:39:06.000Z,0
2019-05-06T01:40:17.000Z,0
2019-05-06T01:41:30.000Z,0
2019-05-06T01:42:42.988Z,0
2019-05-06T01:43:55.000Z,0
2019-05-06T01:45:07.265Z,0
2019-05-06T01:46:19.463Z,0
2019-05-06T01:47:30.000Z,0
2019-05-06T01:49:56.142Z,0
2019-05-06T01:51:08.000Z,0
2019-05-06T01:52:20.420Z,0
2019-05-06T01:53:32.599Z,0
2019-05-06T01:54:44.000Z,0
2019-05-06T01:55:56.000Z,0
2019-05-06T01:57:09.270Z,0
2019-05-06T01:58:21.372Z,0
2019-05-06T01:59:33.000Z,0
2019-05-06T02:01:57.000Z,0
2019-05-06T02:03:10.000Z,0
2019-05-06T02:04:22.000Z,0
2019-05-06T02:05:34.000Z,0
2019-05-06T02:06:46.731Z,0
2019-05-06T02:07:58.913Z,0
2019-05-06T02:09:11.103Z,0
2019-05-06T02:10:23.031Z,0
2019-05-06T02:11:35.623Z,0
2019-05-06T02:13:59.000Z,0
2019-05-06T02:15:12.000Z,0
2019-05-06T02:16:24.270Z,0
2019-05-06T02:17:36.000Z,0
2019-05-06T02:18:48.000Z,0
2019-05-06T02:20:00.868Z,0
2019-05-06T02:21:13.000Z,0
2019-05-06T02:22:25.000Z,0
2019-05-06T02:23:37.000Z,0
2019-05-06T02:26:01.939Z,0
2019-05-06T02:27:13.000Z,0
2019-05-06T02:28:26.209Z,0
2019-05-06T02:29:38.000Z,0
2019-05-06T02:30:50.578Z,0
2019-05-06T02:32:02.782Z,0
2019-05-06T02:33:14.000Z,0
2019-05-06T02:34:27.208Z,0
2019-05-06T02:35:39.375Z,0
2019-05-06T02:38:03.757Z,0
2019-05-06T02:39:15.000Z,0
2019-05-06T02:41:40.000Z,0
2019-05-06T02:42:52.532Z,0
2019-05-06T02:44:04.000Z,0
2019-05-06T02:45:16.913Z,0
2019-05-06T02:46:29.125Z,4
2019-05-06T02:50:05.696Z,4
2019-05-06T02:51:17.000Z,4
2019-05-06T02:52:30.000Z,4
2019-05-06T02:53:42.000Z,4
2019-05-06T02:54:54.464Z,4
2019-05-06T02:56:06.000Z,8
2019-05-06T02:57:18.884Z,8
2019-05-06T02:58:31.046Z,8
2019-05-06T02:59:43.238Z,8
2019-05-06T03:03:19.000Z,16
2019-05-06T03:04:31.000Z,16
2019-05-06T03:05:44.000Z,20
2019-05-06T03:06:56.384Z,24
2019-05-06T03:08:08.000Z,28
2019-05-06T03:09:20.000Z,32
2019-05-06T03:10:32.989Z,36
2019-05-06T03:11:45.200Z,44
2019-05-06T03:14:09.555Z,56
2019-05-06T03:15:21.000Z,64
2019-05-06T03:16:33.000Z,76
2019-05-06T03:17:46.000Z,84
2019-05-06T03:18:58.341Z,100
2019-05-06T03:20:10.000Z,112
2019-05-06T03:21:22.714Z,124
2019-05-06T03:22:34.912Z,144
2019-05-06T03:26:11.497Z,200
2019-05-06T03:27:23.000Z,220
2019-05-06T03:28:35.870Z,244
2019-05-06T03:29:48.000Z,272
2019-05-06T03:32:12.457Z,328
2019-05-06T03:33:24.066Z,352
2019-05-06T03:34:36.000Z,388
2019-05-06T03:35:49.048Z,420
2019-05-06T03:39:25.000Z,532
2019-05-06T03:40:37.000Z,572
2019-05-06T03:41:49.000Z,616
2019-05-06T03:43:02.188Z,656
2019-05-06T03:44:14.379Z,700
2019-05-06T03:45:26.000Z,744
2019-05-06T03:46:38.787Z,792
2019-05-06T03:47:51.029Z,840
2019-05-06T03:50:15.342Z,940
2019-05-06T03:51:27.000Z,988
2019-05-06T03:52:39.000Z,1044
2019-05-06T03:53:51.000Z,1092
2019-05-06T03:55:04.139Z,1144
2019-05-06T03:56:16.310Z,1200
2019-05-06T03:57:28.506Z,1260
2019-05-06T03:58:40.000Z,1304
2019-05-06T04:02:17.000Z,1468
2019-05-06T04:03:29.000Z,1524
2019-05-06T04:04:41.817Z,1576
2019-05-06T04:05:53.000Z,1640
2019-05-06T04:07:06.000Z,1692
2019-05-06T04:08:18.000Z,1748
2019-05-06T04:09:30.460Z,1804
2019-05-06T04:10:42.654Z,1864
2019-05-06T04:11:54.000Z,1912
2019-05-06T04:14:19.000Z,2032
2019-05-06T04:15:31.000Z,2092
2019-05-06T04:16:43.626Z,2156
2019-05-06T04:17:55.000Z,2208
2019-05-06T04:19:08.003Z,2276
2019-05-06T04:20:20.179Z,2340
2019-05-06T04:22:44.587Z,2448
2019-05-06T04:23:56.863Z,2512
2019-05-06T04:26:21.166Z,2712
2019-05-06T04:27:33.368Z,2916
2019-05-06T04:28:45.000Z,3624
2019-05-06T04:29:57.000Z,5200
2019-05-06T04:31:09.000Z,5664
2019-05-06T04:32:22.120Z,5012
2019-05-06T04:33:34.000Z,6552
2019-05-06T04:34:46.537Z,7292
2019-05-06T04:35:58.713Z,7536
2019-05-06T04:38:23.000Z,7772
2019-05-06T04:39:35.000Z,8108
2019-05-06T04:40:47.483Z,8232
2019-05-06T04:41:59.000Z,8412
2019-05-06T04:43:11.995Z,8888
2019-05-06T04:44:24.179Z,9100
2019-05-06T04:45:36.259Z,9068
2019-05-06T04:46:48.523Z,9020
2019-05-06T04:48:00.000Z,9220
2019-05-06T04:51:37.000Z,10064
2019-05-06T04:52:49.419Z,10072
2019-05-06T04:54:01.000Z,10448
2019-05-06T04:55:13.798Z,11064
2019-05-06T04:56:27.038Z,11228
2019-05-06T04:57:38.291Z,11536
2019-05-06T04:58:50.377Z,11488
2019-05-06T05:00:02.068Z,11844
2019-05-06T05:02:26.958Z,10436
2019-05-06T05:03:39.000Z,10600
2019-05-06T05:04:51.340Z,10192
2019-05-06T05:06:03.000Z,9668
2019-05-06T05:07:15.747Z,9840
2019-05-06T05:08:27.918Z,10432
2019-05-06T05:09:40.000Z,10176
2019-05-06T05:10:52.309Z,9988
2019-05-06T05:12:04.621Z,10084
2019-05-06T05:14:28.893Z,12356
2019-05-06T05:15:41.000Z,11696
2019-05-06T05:16:53.268Z,8316
2019-05-06T05:18:05.000Z,4624
2019-05-06T05:19:17.000Z,4324
2019-05-06T05:20:29.000Z,4396
2019-05-06T05:21:42.048Z,4356
2019-05-06T05:22:54.262Z,4324
2019-05-06T05:24:06.456Z,4348
2019-05-06T05:26:30.000Z,4416
2019-05-06T05:27:42.000Z,4428
2019-05-06T05:28:55.220Z,4460
2019-05-06T05:30:07.000Z,4492
2019-05-06T05:31:19.585Z,4512
2019-05-06T05:32:31.000Z,4488
2019-05-06T05:33:43.000Z,4628
2019-05-06T05:34:56.195Z,4556
2019-05-06T05:36:08.368Z,4564
2019-05-06T05:38:32.767Z,4632
2019-05-06T05:39:44.000Z,4632
2019-05-06T05:40:57.237Z,4640
2019-05-06T05:42:09.000Z,4620
2019-05-06T05:44:33.000Z,4672
2019-05-06T05:45:45.000Z,4796
2019-05-06T05:46:58.120Z,4752
2019-05-06T05:48:10.000Z,4728
2019-05-06T05:50:34.720Z,4748
2019-05-06T05:51:46.000Z,4744
2019-05-06T05:52:59.086Z,4748
2019-05-06T05:54:11.000Z,4784
2019-05-06T05:55:23.000Z,4820
2019-05-06T05:56:35.000Z,4892
2019-05-06T05:57:47.000Z,4776
2019-05-06T05:59:00.059Z,4772
2019-05-06T06:00:12.243Z,4876
2019-05-06T06:02:36.711Z,4828
2019-05-06T06:03:48.000Z,4836
2019-05-06T06:05:01.040Z,4832
2019-05-06T06:06:13.000Z,4852
2019-05-06T06:07:25.426Z,4840
2019-05-06T06:08:37.589Z,4888
2019-05-06T06:09:49.000Z,4916
2019-05-06T06:11:01.984Z,4888
2019-05-06T06:12:14.178Z,4900
2019-05-06T06:14:38.000Z,5088
2019-05-06T06:15:50.000Z,5008
2019-05-06T06:17:02.000Z,5084
2019-05-06T06:18:15.000Z,5088
2019-05-06T06:19:27.000Z,5096
2019-05-06T06:20:39.000Z,5328
2019-05-06T06:21:51.729Z,4992
2019-05-06T06:23:03.936Z,4740
2019-05-06T06:24:16.241Z,5176
2019-05-06T06:26:40.000Z,5212
2019-05-06T06:27:52.000Z,5284
2019-05-06T06:29:04.956Z,5248
2019-05-06T06:30:17.000Z,5328
2019-05-06T06:31:29.403Z,5368
2019-05-06T06:32:41.481Z,5400
2019-05-06T06:33:53.665Z,5528
2019-05-06T06:35:05.923Z,5552
2019-05-06T06:36:18.000Z,5560
2019-05-06T06:39:54.000Z,5824
2019-05-06T06:41:06.000Z,5852
2019-05-06T06:42:19.000Z,6176
2019-05-06T06:43:31.211Z,6260
2019-05-06T06:44:43.000Z,6648
2019-05-06T06:45:55.000Z,7376
2019-05-06T06:47:07.807Z,8256
2019-05-06T06:48:19.000Z,8404
2019-05-06T06:50:44.383Z,7312
2019-05-06T06:51:56.606Z,7448
2019-05-06T06:54:20.000Z,6896
2019-05-06T06:55:33.000Z,6648
2019-05-06T06:56:45.337Z,6384
2019-05-06T06:57:57.533Z,6484
2019-05-06T06:59:09.737Z,6668
2019-05-06T07:00:21.000Z,7176
2019-05-06T07:02:46.000Z,8096
2019-05-06T07:03:58.000Z,7848
2019-05-06T07:05:10.000Z,7956
2019-05-06T07:06:22.000Z,6784
2019-05-06T07:07:35.085Z,6568
2019-05-06T07:08:47.000Z,7700
2019-05-06T07:09:59.000Z,8264
2019-05-06T07:11:11.815Z,8652
2019-05-06T07:12:23.860Z,11408
2019-05-06T07:14:48.308Z,14080
2019-05-06T07:16:00.000Z,13760
2019-05-06T07:17:12.064Z,11384
2019-05-06T07:18:24.000Z,9316
2019-05-06T07:19:37.014Z,5800
2019-05-06T07:20:49.248Z,7944
2019-05-06T07:22:01.000Z,7692
2019-05-06T07:23:13.603Z,7388
2019-05-06T07:24:25.000Z,7768
2019-05-06T07:26:50.169Z,9104
2019-05-06T07:28:02.000Z,10468
2019-05-06T07:29:14.000Z,11308
2019-05-06T07:30:26.000Z,10752
2019-05-06T07:31:38.000Z,8380
2019-05-06T07:32:51.151Z,8132
2019-05-06T07:34:03.333Z,10464
2019-05-06T07:35:15.000Z,8256
2019-05-06T07:38:52.000Z,11112
2019-05-06T07:40:04.000Z,12820
2019-05-06T07:41:16.494Z,11920
2019-05-06T07:42:28.000Z,10408
2019-05-06T07:43:40.000Z,8772
2019-05-06T07:44:53.000Z,10224
2019-05-06T07:46:05.000Z,10160
2019-05-06T07:47:17.579Z,10204
2019-05-06T07:48:29.000Z,10992
2019-05-06T07:50:54.000Z,9560
2019-05-06T07:52:06.000Z,9940
2019-05-06T07:53:18.000Z,9452
2019-05-06T07:54:30.000Z,9304
2019-05-06T07:55:42.845Z,10180
2019-05-06T07:56:54.000Z,12328
2019-05-06T07:58:07.273Z,16872
2019-05-06T07:59:19.413Z,17252
2019-05-06T08:00:31.000Z,13028
2019-05-06T08:04:08.000Z,8388
2019-05-06T08:05:20.000Z,10968
2019-05-06T08:06:32.000Z,11868
2019-05-06T08:07:44.779Z,12652
2019-05-06T08:08:56.966Z,12432
2019-05-06T08:10:09.141Z,11156
2019-05-06T08:11:21.356Z,10440
2019-05-06T08:12:33.000Z,11348
2019-05-06T08:14:57.000Z,9712
2019-05-06T08:16:10.000Z,9916
2019-05-06T08:17:22.000Z,9704
2019-05-06T08:18:34.000Z,11008
2019-05-06T08:19:46.000Z,11560
2019-05-06T08:20:58.000Z,13284
2019-05-06T08:22:11.000Z,14504
2019-05-06T08:23:23.282Z,14096
2019-05-06T08:24:35.000Z,12808
2019-05-06T08:26:59.000Z,9540
2019-05-06T08:28:12.000Z,7472
2019-05-06T08:29:24.000Z,5920
2019-05-06T08:30:36.000Z,5452
2019-05-06T08:31:48.000Z,5304
2019-05-06T08:33:00.000Z,5784
2019-05-06T08:34:13.000Z,7116
2019-05-06T08:35:25.223Z,5932
2019-05-06T08:36:37.000Z,5944
2019-05-06T08:39:01.791Z,7784
2019-05-06T08:40:13.999Z,7340
2019-05-06T08:41:26.302Z,9492
2019-05-06T08:42:38.000Z,11292
2019-05-06T08:43:50.587Z,12104
2019-05-06T08:45:02.766Z,12304
2019-05-06T08:46:14.947Z,13208
2019-05-06T08:47:27.014Z,13728
2019-05-06T08:48:39.405Z,14552
2019-05-06T08:51:03.810Z,18208
2019-05-06T08:52:15.000Z,19552
2019-05-06T08:53:28.000Z,17504
2019-05-06T08:54:40.000Z,14048
2019-05-06T08:55:52.000Z,12052
2019-05-06T08:57:04.000Z,11220
2019-05-06T08:58:16.000Z,10688
2019-05-06T08:59:29.090Z,10228
2019-05-06T09:00:41.269Z,10916
2019-05-06T09:03:05.668Z,12392
2019-05-06T09:04:17.000Z,14140
2019-05-06T09:05:30.049Z,15808
2019-05-06T09:06:42.287Z,15672
2019-05-06T09:07:54.000Z,13984
2019-05-06T09:09:06.000Z,11908
2019-05-06T09:10:18.000Z,11580
2019-05-06T09:11:31.031Z,12116
2019-05-06T09:12:43.000Z,12124
2019-05-06T09:15:07.000Z,11268
2019-05-06T09:16:19.000Z,11272
2019-05-06T09:17:31.000Z,9304
2019-05-06T09:18:44.000Z,9288
2019-05-06T09:19:56.403Z,10068
2019-05-06T09:21:08.568Z,11580
2019-05-06T09:22:20.755Z,11944
2019-05-06T09:23:32.956Z,10836
2019-05-06T09:24:45.000Z,10608
2019-05-06T09:27:09.555Z,10984
2019-05-06T09:28:21.000Z,11896
2019-05-06T09:29:33.917Z,13240
2019-05-06T09:30:46.000Z,14660
2019-05-06T09:33:10.490Z,17376
2019-05-06T09:34:22.703Z,16872
2019-05-06T09:35:34.897Z,17592
2019-05-06T09:36:47.110Z,18624
2019-05-06T09:39:11.000Z,18656
2019-05-06T09:40:23.665Z,17244
2019-05-06T09:41:35.000Z,15272
2019-05-06T09:42:48.000Z,13480
2019-05-06T09:44:00.232Z,12204
2019-05-06T09:45:12.422Z,11384
2019-05-06T09:46:24.750Z,12004
2019-05-06T09:47:36.084Z,11136
2019-05-06T09:48:48.000Z,12520
2019-05-06T09:51:13.401Z,12876
2019-05-06T09:52:25.000Z,13040
2019-05-06T09:53:37.000Z,13008
2019-05-06T09:54:49.000Z,12708
2019-05-06T09:56:02.187Z,12508
2019-05-06T09:57:14.405Z,12832
2019-05-06T09:58:26.570Z,13220
2019-05-06T09:59:38.763Z,13480
2019-05-06T10:00:50.000Z,13444
2019-05-06T10:03:15.453Z,11888
2019-05-06T10:04:27.574Z,10768
2019-05-06T10:05:39.720Z,9564
2019-05-06T10:06:51.000Z,9540
2019-05-06T10:08:04.228Z,9072
2019-05-06T10:09:16.292Z,10212
2019-05-06T10:10:28.512Z,11944
2019-05-06T10:11:40.710Z,12308
2019-05-06T10:12:52.896Z,13240
2019-05-06T10:15:17.000Z,13300
2019-05-06T10:16:29.000Z,13508
2019-05-06T10:17:41.000Z,14236
2019-05-06T10:18:53.000Z,15032
2019-05-06T10:20:06.054Z,15852
2019-05-06T10:21:18.253Z,16128
2019-05-06T10:22:30.000Z,15344
2019-05-06T10:23:42.000Z,14152
2019-05-06T10:24:54.000Z,12944
2019-05-06T10:26:07.126Z,12640
2019-05-06T10:27:19.198Z,12776
2019-05-06T10:28:31.000Z,13496
2019-05-06T10:29:43.711Z,14324
2019-05-06T10:30:55.000Z,16488
2019-05-06T10:32:07.099Z,18080
2019-05-06T10:33:20.186Z,20096
2019-05-06T10:34:32.360Z,22240
2019-05-06T10:35:44.576Z,22752
2019-05-06T10:36:56.000Z,22336
2019-05-06T10:39:21.157Z,20768
2019-05-06T10:40:33.000Z,20128
2019-05-06T10:41:45.524Z,19264
2019-05-06T10:42:57.000Z,19840
2019-05-06T10:44:09.000Z,19040
2019-05-06T10:45:22.154Z,19392
2019-05-06T10:46:34.000Z,20096
2019-05-06T10:47:46.498Z,22048
2019-05-06T10:48:58.676Z,22176
2019-05-06T10:51:23.000Z,21536
2019-05-06T10:52:35.000Z,21312
2019-05-06T10:53:47.000Z,20960
2019-05-06T10:54:59.000Z,20800
2019-05-06T10:56:11.894Z,20864
2019-05-06T10:57:24.033Z,21120
2019-05-06T10:58:36.000Z,18944
2019-05-06T10:59:48.413Z,16924
2019-05-06T11:01:00.000Z,14024
2019-05-06T11:03:24.986Z,10792
2019-05-06T11:04:37.000Z,10396
2019-05-06T11:05:49.000Z,10712
2019-05-06T11:07:01.000Z,11724
2019-05-06T11:08:13.000Z,13668
2019-05-06T11:09:25.922Z,16344
2019-05-06T11:10:38.116Z,18816
2019-05-06T11:11:50.327Z,20384
2019-05-06T11:13:02.506Z,21120
2019-05-06T11:15:26.000Z,20640
2019-05-06T11:16:39.000Z,20672
2019-05-06T11:17:51.265Z,20736
2019-05-06T11:19:03.000Z,20736
2019-05-06T11:20:15.719Z,20576
2019-05-06T11:21:27.000Z,20384
2019-05-06T11:22:40.044Z,19328
2019-05-06T11:23:52.239Z,18080
2019-05-06T11:25:04.418Z,17044
2019-05-06T11:28:40.000Z,13492
2019-05-06T11:29:53.000Z,12156
2019-05-06T11:31:05.000Z,11168
2019-05-06T11:32:17.565Z,10492
2019-05-06T11:33:29.000Z,10440
2019-05-06T11:34:42.043Z,10176
2019-05-06T11:35:54.152Z,9056
2019-05-06T11:37:06.000Z,7504
2019-05-06T11:39:30.715Z,6504
2019-05-06T11:40:42.000Z,6860
2019-05-06T11:43:07.000Z,5872
2019-05-06T11:44:19.487Z,7508
2019-05-06T11:45:31.689Z,8644
2019-05-06T11:46:43.854Z,10948
2019-05-06T11:47:56.066Z,12908
2019-05-06T11:49:08.390Z,14768
2019-05-06T11:51:32.000Z,14148
2019-05-06T11:52:44.000Z,12404
2019-05-06T11:53:57.010Z,12148
2019-05-06T11:55:09.000Z,12860
2019-05-06T11:56:21.000Z,14228
2019-05-06T11:57:33.000Z,16380
2019-05-06T11:58:45.000Z,19808
2019-05-06T11:59:57.000Z,22560
2019-05-06T12:01:10.015Z,23712
2019-05-06T12:03:34.548Z,23712
2019-05-06T12:04:46.000Z,23104
2019-05-06T12:05:58.000Z,22464
2019-05-06T12:07:11.000Z,21696
2019-05-06T12:08:23.311Z,20384
2019-05-06T12:09:35.000Z,19072
2019-05-06T12:10:47.000Z,18400
2019-05-06T12:11:59.895Z,16880
2019-05-06T12:13:12.092Z,15216
2019-05-06T12:15:36.446Z,12060
2019-05-06T12:16:48.000Z,10212
2019-05-06T12:18:00.000Z,9172
2019-05-06T12:19:13.000Z,8760
2019-05-06T12:20:25.334Z,8900
2019-05-06T12:21:37.000Z,9960
2019-05-06T12:22:49.606Z,11888
2019-05-06T12:24:01.811Z,14892
2019-05-06T12:25:13.981Z,17664
2019-05-06T12:27:38.000Z,18496
2019-05-06T12:28:50.000Z,17760
2019-05-06T12:30:02.000Z,18688
2019-05-06T12:31:14.000Z,19808
2019-05-06T12:32:27.000Z,20704
2019-05-06T12:33:39.000Z,21024
2019-05-06T12:34:51.000Z,21024
2019-05-06T12:36:03.988Z,21696
2019-05-06T12:37:15.000Z,21952
2019-05-06T12:40:52.000Z,20352
2019-05-06T12:42:04.000Z,20512
2019-05-06T12:43:16.000Z,20448
2019-05-06T12:44:29.000Z,20512
2019-05-06T12:45:41.348Z,20576
2019-05-06T12:46:53.000Z,19584
2019-05-06T12:48:05.683Z,17664
2019-05-06T12:49:17.000Z,15208
2019-05-06T12:51:42.000Z,14260
2019-05-06T12:52:54.000Z,15012
2019-05-06T12:54:06.000Z,16500
2019-05-06T12:55:18.000Z,17696
2019-05-06T12:56:31.009Z,18080
2019-05-06T12:57:43.169Z,18112
2019-05-06T12:58:55.351Z,18144
2019-05-06T13:00:07.549Z,19360
2019-05-06T13:01:19.000Z,20192
2019-05-06T13:04:56.000Z,21024
2019-05-06T13:06:08.000Z,20288
2019-05-06T13:07:20.000Z,19040
2019-05-06T13:08:32.000Z,17760
2019-05-06T13:09:45.000Z,17728
2019-05-06T13:10:57.000Z,16956
2019-05-06T13:12:09.473Z,15796
2019-05-06T13:13:21.705Z,14676
2019-05-06T13:15:45.000Z,14108
2019-05-06T13:16:58.000Z,13940
2019-05-06T13:18:10.000Z,13460
2019-05-06T13:19:22.000Z,13100
2019-05-06T13:20:34.803Z,10896
2019-05-06T13:21:46.000Z,9916
2019-05-06T13:22:59.273Z,8920
2019-05-06T13:24:11.037Z,8768
2019-05-06T13:25:23.000Z,8648
2019-05-06T13:27:47.968Z,9704
2019-05-06T13:29:00.215Z,9184
2019-05-06T13:30:12.000Z,10112
2019-05-06T13:31:24.000Z,11448
2019-05-06T13:32:36.729Z,10560
2019-05-06T13:33:48.924Z,13060
2019-05-06T13:35:01.094Z,14716
2019-05-06T13:36:13.288Z,16364
2019-05-06T13:37:25.586Z,15808
2019-05-06T13:38:37.743Z,16328
2019-05-06T13:39:49.000Z,16744
2019-05-06T13:41:02.000Z,16828
2019-05-06T13:42:14.243Z,16952
2019-05-06T13:43:26.000Z,15748
2019-05-06T13:44:38.000Z,15360
2019-05-06T13:45:50.000Z,17152
2019-05-06T13:47:02.000Z,18368
2019-05-06T13:48:15.024Z,18752
2019-05-06T13:49:27.412Z,18656
2019-05-06T13:50:39.064Z,18656
2019-05-06T13:51:51.000Z,18560
2019-05-06T13:53:03.980Z,18528
2019-05-06T13:54:16.000Z,18272
2019-05-06T13:55:28.000Z,18976
2019-05-06T13:56:40.052Z,19328
2019-05-06T13:57:52.734Z,19424
2019-05-06T13:59:04.929Z,18624
2019-05-06T14:00:17.128Z,17536
2019-05-06T14:01:29.289Z,16928
2019-05-06T14:03:53.680Z,15916
2019-05-06T14:05:05.883Z,14960
2019-05-06T14:06:18.000Z,15212
2019-05-06T14:07:30.000Z,15596
2019-05-06T14:08:42.000Z,15924
2019-05-06T14:09:54.642Z,16336
2019-05-06T14:11:06.084Z,17064
2019-05-06T14:12:19.031Z,18112
2019-05-06T14:13:31.000Z,18720
2019-05-06T14:14:43.434Z,18208
2019-05-06T14:15:55.000Z,16928
2019-05-06T14:17:07.000Z,15908
2019-05-06T14:18:19.981Z,13420
2019-05-06T14:19:32.000Z,9472
2019-05-06T14:20:44.422Z,9080
2019-05-06T14:21:56.561Z,9724
2019-05-06T14:23:08.000Z,10432
2019-05-06T14:24:20.000Z,11336
2019-05-06T14:25:33.000Z,11952
2019-05-06T14:29:09.724Z,12396
2019-05-06T14:30:21.000Z,11656
2019-05-06T14:31:34.000Z,11544
2019-05-06T14:32:46.000Z,11276
2019-05-06T14:33:58.000Z,11776
2019-05-06T14:35:10.000Z,12860
2019-05-06T14:36:22.861Z,13436
2019-05-06T14:37:35.000Z,13600
2019-05-06T14:39:59.416Z,13844
2019-05-06T14:41:11.000Z,13604
2019-05-06T14:42:23.000Z,13832
2019-05-06T14:43:35.000Z,13368
2019-05-06T14:44:48.000Z,12708
2019-05-06T14:46:00.375Z,12336
2019-05-06T14:47:12.563Z,12952
2019-05-06T14:48:24.773Z,13796
2019-05-06T14:49:36.000Z,14224
2019-05-06T14:52:01.343Z,12416
2019-05-06T14:53:13.539Z,10876
2019-05-06T14:54:25.714Z,8752
2019-05-06T14:55:37.000Z,7660
2019-05-06T14:58:02.288Z,6312
2019-05-06T14:59:14.000Z,6484
2019-05-06T15:00:26.000Z,6520
2019-05-06T15:01:38.873Z,6124
2019-05-06T15:04:03.000Z,5028
2019-05-06T15:05:15.046Z,4892
2019-05-06T15:06:27.658Z,5160
2019-05-06T15:07:39.000Z,5800
2019-05-06T15:08:52.111Z,6348
2019-05-06T15:10:04.252Z,6556
2019-05-06T15:11:16.466Z,6428
2019-05-06T15:12:28.608Z,6612
2019-05-06T15:13:40.000Z,6400
2019-05-06T15:16:05.000Z,4992
2019-05-06T15:17:17.000Z,4540
2019-05-06T15:18:29.614Z,4020
2019-05-06T15:19:41.000Z,3496
2019-05-06T15:20:53.938Z,3200
2019-05-06T15:22:06.122Z,3036
2019-05-06T15:23:18.312Z,2892
2019-05-06T15:24:30.523Z,2736
2019-05-06T15:25:42.846Z,2564
2019-05-06T15:28:07.085Z,2968
2019-05-06T15:29:19.000Z,3184
2019-05-06T15:31:43.000Z,2900
2019-05-06T15:32:55.000Z,2580
2019-05-06T15:34:08.000Z,2548
2019-05-06T15:35:20.000Z,2848
2019-05-06T15:36:32.516Z,3296
2019-05-06T15:37:44.000Z,3752
2019-05-06T15:40:08.000Z,4232
2019-05-06T15:41:21.000Z,4232
2019-05-06T15:42:33.389Z,4200
2019-05-06T15:43:45.000Z,4112
2019-05-06T15:44:57.772Z,3872
2019-05-06T15:46:09.981Z,3544
2019-05-06T15:47:22.153Z,3084
2019-05-06T15:48:34.362Z,2512
2019-05-06T15:49:46.546Z,2124
2019-05-06T15:52:10.091Z,2012
2019-05-06T15:53:23.000Z,2020
2019-05-06T15:54:35.000Z,1968
2019-05-06T15:55:47.000Z,1932
2019-05-06T15:56:59.746Z,1908
2019-05-06T15:58:11.863Z,1860
2019-05-06T15:59:24.063Z,1760
2019-05-06T16:00:36.271Z,1624
2019-05-06T16:01:48.000Z,1628
2019-05-06T16:04:12.000Z,1752
2019-05-06T16:05:25.000Z,1568
2019-05-06T16:06:37.221Z,1376
2019-05-06T16:07:49.000Z,1336
2019-05-06T16:09:01.070Z,1456
2019-05-06T16:10:13.793Z,1680
2019-05-06T16:11:26.010Z,2012
2019-05-06T16:12:38.184Z,2464
2019-05-06T16:13:50.368Z,2852
2019-05-06T16:16:14.000Z,2712
2019-05-06T16:17:26.000Z,2416
2019-05-06T16:18:39.014Z,2336
2019-05-06T16:19:51.000Z,2256
2019-05-06T16:21:03.539Z,2212
2019-05-06T16:22:15.719Z,2336
2019-05-06T16:23:27.000Z,2608
2019-05-06T16:24:40.088Z,2928
2019-05-06T16:25:52.000Z,2972
2019-05-06T16:28:16.649Z,2232
2019-05-06T16:29:28.865Z,1800
2019-05-06T16:30:41.000Z,1520
2019-05-06T16:31:53.000Z,1432
2019-05-06T16:33:05.000Z,1500
2019-05-06T16:34:17.061Z,1624
2019-05-06T16:35:29.000Z,1644
2019-05-06T16:36:42.000Z,1616
2019-05-06T16:37:54.000Z,1604
2019-05-06T16:40:18.650Z,1676
2019-05-06T16:41:30.767Z,1748
2019-05-06T16:42:42.000Z,1864
2019-05-06T16:43:55.000Z,1964
2019-05-06T16:46:19.539Z,2060
2019-05-06T16:47:31.000Z,2072
2019-05-06T16:48:43.915Z,2040
2019-05-06T16:51:08.310Z,1848
2019-05-06T16:52:20.000Z,1684
2019-05-06T16:53:32.680Z,1612
2019-05-06T16:54:44.885Z,1592
2019-05-06T16:55:57.000Z,1512
2019-05-06T16:57:09.000Z,1396
2019-05-06T16:58:21.464Z,1268
2019-05-06T16:59:33.007Z,1188
2019-05-06T17:00:45.828Z,1128
2019-05-06T17:01:58.330Z,1144
2019-05-06T17:04:22.000Z,1376
2019-05-06T17:05:34.000Z,1528
2019-05-06T17:06:46.000Z,1636
2019-05-06T17:07:59.000Z,1776
2019-05-06T17:09:11.327Z,1912
2019-05-06T17:10:23.510Z,1968
2019-05-06T17:11:35.691Z,1984
2019-05-06T17:12:47.000Z,1992
2019-05-06T17:14:00.000Z,2068
2019-05-06T17:16:24.482Z,2224
2019-05-06T17:17:36.000Z,2276
2019-05-06T17:18:48.857Z,2272
2019-05-06T17:20:01.000Z,2300
2019-05-06T17:21:13.292Z,2352
2019-05-06T17:22:25.414Z,2356
2019-05-06T17:23:37.062Z,2388
2019-05-06T17:24:49.000Z,2432
2019-05-06T17:26:03.303Z,2512
2019-05-06T17:29:38.000Z,3004
2019-05-06T17:30:50.775Z,3100
2019-05-06T17:32:02.000Z,3144
2019-05-06T17:33:15.139Z,3200
2019-05-06T17:34:27.326Z,3288
2019-05-06T17:35:39.000Z,3436
2019-05-06T17:36:51.725Z,3664
2019-05-06T17:38:03.930Z,3804
2019-05-06T17:39:16.115Z,3860
2019-05-06T17:40:28.289Z,3632
2019-05-06T17:41:40.000Z,3112
2019-05-06T17:42:52.809Z,2744
2019-05-06T17:44:04.000Z,2416
2019-05-06T17:45:17.000Z,2092
2019-05-06T17:46:29.242Z,1784
2019-05-06T17:47:41.000Z,1608
2019-05-06T17:48:53.638Z,1596
2019-05-06T17:50:05.894Z,1584
2019-05-06T17:52:30.227Z,1588
2019-05-06T17:53:42.041Z,1680
2019-05-06T17:54:54.588Z,1828
2019-05-06T17:57:18.000Z,2224
2019-05-06T17:58:31.164Z,2176
2019-05-06T17:59:43.380Z,1928
2019-05-06T18:00:55.676Z,1572
2019-05-06T18:02:07.739Z,1336
2019-05-06T18:04:32.234Z,1104
2019-05-06T18:05:44.000Z,1072
2019-05-06T18:06:56.000Z,1052
2019-05-06T18:08:08.000Z,1004
2019-05-06T18:09:20.888Z,952
2019-05-06T18:10:33.000Z,924
2019-05-06T18:11:45.000Z,924
2019-05-06T18:12:57.046Z,912
2019-05-06T18:14:09.658Z,884
2019-05-06T18:15:21.863Z,828
2019-05-06T18:16:34.030Z,752
2019-05-06T18:17:46.000Z,684
2019-05-06T18:18:58.000Z,616
2019-05-06T18:20:10.000Z,532
2019-05-06T18:21:22.825Z,460